sensor_id;sensor_type;location;lat;lon;timestamp;pressure;altitude;pressure_sealevel;temperature;humidity
79527;BME280;68974;47.754;-3.364;2023-10-08T00:00:46;102415.50;;;15.03;77.70
79527;BME280;68974;47.754;-3.364;2023-10-08T00:03:13;102400.81;;;15.03;77.86
79527;BME280;68974;47.754;-3.364;2023-10-08T00:05:40;102405.53;;;15.02;77.82
79527;BME280;68974;47.754;-3.364;2023-10-08T00:08:07;102399.16;;;15.02;77.74
79527;BME280;68974;47.754;-3.364;2023-10-08T00:10:38;102401.91;;;15.02;77.71
79527;BME280;68974;47.754;-3.364;2023-10-08T00:13:07;102400.53;;;14.99;77.67
79527;BME280;68974;47.754;-3.364;2023-10-08T00:15:35;102400.22;;;14.96;77.60
79527;BME280;68974;47.754;-3.364;2023-10-08T00:18:04;102412.41;;;14.95;77.58
79527;BME280;68974;47.754;-3.364;2023-10-08T00:20:32;102409.34;;;14.91;77.56
79527;BME280;68974;47.754;-3.364;2023-10-08T00:23:09;102404.09;;;14.90;77.54
79527;BME280;68974;47.754;-3.364;2023-10-08T00:25:35;102410.97;;;14.87;77.65
79527;BME280;68974;47.754;-3.364;2023-10-08T00:28:09;102410.13;;;14.82;77.70
79527;BME280;68974;47.754;-3.364;2023-10-08T00:30:41;102419.56;;;14.81;77.86
79527;BME280;68974;47.754;-3.364;2023-10-08T00:33:08;102419.56;;;14.81;78.12
79527;BME280;68974;47.754;-3.364;2023-10-08T00:35:41;102423.66;;;14.78;77.71
79527;BME280;68974;47.754;-3.364;2023-10-08T00:38:10;102418.41;;;14.77;77.56
79527;BME280;68974;47.754;-3.364;2023-10-08T00:40:46;102416.44;;;14.72;77.52
79527;BME280;68974;47.754;-3.364;2023-10-08T00:43:34;102410.66;;;14.73;77.45
79527;BME280;68974;47.754;-3.364;2023-10-08T00:46:02;102405.38;;;14.72;77.26
79527;BME280;68974;47.754;-3.364;2023-10-08T00:48:41;102401.50;;;14.73;76.88
79527;BME280;68974;47.754;-3.364;2023-10-08T00:51:09;102404.53;;;14.71;76.86
79527;BME280;68974;47.754;-3.364;2023-10-08T00:54:03;102413.13;;;14.70;76.95
79527;BME280;68974;47.754;-3.364;2023-10-08T00:56:36;102403.97;;;14.64;76.72
79527;BME280;68974;47.754;-3.364;2023-10-08T00:59:20;102405.59;;;14.60;76.86
79527;BME280;68974;47.754;-3.364;2023-10-08T01:01:49;102412.22;;;14.59;76.87
79527;BME280;68974;47.754;-3.364;2023-10-08T01:04:30;102404.19;;;14.58;76.46
79527;BME280;68974;47.754;-3.364;2023-10-08T01:07:00;102403.91;;;14.54;76.89
79527;BME280;68974;47.754;-3.364;2023-10-08T01:09:38;102403.63;;;14.56;76.23
79527;BME280;68974;47.754;-3.364;2023-10-08T01:12:15;102405.56;;;14.55;76.45
79527;BME280;68974;47.754;-3.364;2023-10-08T01:14:43;102400.28;;;14.54;76.48
79527;BME280;68974;47.754;-3.364;2023-10-08T01:17:12;102403.59;;;14.51;76.36
79527;BME280;68974;47.754;-3.364;2023-10-08T01:19:45;102401.66;;;14.46;76.67
79527;BME280;68974;47.754;-3.364;2023-10-08T01:22:15;102397.72;;;14.42;76.76
79527;BME280;68974;47.754;-3.364;2023-10-08T01:24:45;102397.19;;;14.40;76.97
79527;BME280;68974;47.754;-3.364;2023-10-08T01:27:14;102394.66;;;14.39;77.16
79527;BME280;68974;47.754;-3.364;2023-10-08T01:29:46;102397.69;;;14.37;77.14
79527;BME280;68974;47.754;-3.364;2023-10-08T01:32:11;102401.56;;;14.36;77.02
79527;BME280;68974;47.754;-3.364;2023-10-08T01:34:41;102394.84;;;14.32;76.65
79527;BME280;68974;47.754;-3.364;2023-10-08T01:37:17;102397.06;;;14.30;76.71
79527;BME280;68974;47.754;-3.364;2023-10-08T01:39:43;102384.88;;;14.26;76.53
79527;BME280;68974;47.754;-3.364;2023-10-08T01:42:11;102387.06;;;14.24;76.67
79527;BME280;68974;47.754;-3.364;2023-10-08T01:44:46;102375.47;;;14.27;76.02
79527;BME280;68974;47.754;-3.364;2023-10-08T01:47:13;102368.81;;;14.23;76.01
79527;BME280;68974;47.754;-3.364;2023-10-08T01:49:39;102374.06;;;14.19;76.29
79527;BME280;68974;47.754;-3.364;2023-10-08T01:52:06;102385.94;;;14.20;75.79
79527;BME280;68974;47.754;-3.364;2023-10-08T01:54:38;102380.97;;;14.17;75.84
79527;BME280;68974;47.754;-3.364;2023-10-08T01:57:03;102375.94;;;14.14;75.90
79527;BME280;68974;47.754;-3.364;2023-10-08T01:59:31;102376.19;;;14.07;76.26
79527;BME280;68974;47.754;-3.364;2023-10-08T02:01:56;102369.00;;;14.06;76.23
79527;BME280;68974;47.754;-3.364;2023-10-08T02:04:23;102375.59;;;14.05;76.35
79527;BME280;68974;47.754;-3.364;2023-10-08T02:06:51;102373.09;;;14.04;76.49
79527;BME280;68974;47.754;-3.364;2023-10-08T02:09:16;102363.13;;;14.03;76.12
79527;BME280;68974;47.754;-3.364;2023-10-08T02:11:46;102363.69;;;14.00;76.48
79527;BME280;68974;47.754;-3.364;2023-10-08T02:14:15;102362.56;;;13.96;76.68
79527;BME280;68974;47.754;-3.364;2023-10-08T02:16:40;102359.78;;;13.96;76.74
79527;BME280;68974;47.754;-3.364;2023-10-08T02:19:07;102366.41;;;13.95;76.62
79527;BME280;68974;47.754;-3.364;2023-10-08T02:21:36;102365.53;;;13.89;76.56
79527;BME280;68974;47.754;-3.364;2023-10-08T02:24:03;102361.41;;;13.92;76.45
79527;BME280;68974;47.754;-3.364;2023-10-08T02:26:29;102368.63;;;13.93;76.83
79527;BME280;68974;47.754;-3.364;2023-10-08T02:28:54;102364.19;;;13.92;76.46
79527;BME280;68974;47.754;-3.364;2023-10-08T02:31:20;102359.75;;;13.91;76.30
79527;BME280;68974;47.754;-3.364;2023-10-08T02:33:45;102356.94;;;13.85;76.46
79527;BME280;68974;47.754;-3.364;2023-10-08T02:36:10;102361.63;;;13.85;76.28
79527;BME280;68974;47.754;-3.364;2023-10-08T02:38:37;102360.25;;;13.82;76.13
79527;BME280;68974;47.754;-3.364;2023-10-08T02:41:04;102363.81;;;13.83;76.70
79527;BME280;68974;47.754;-3.364;2023-10-08T02:43:33;102355.81;;;13.81;76.67
79527;BME280;68974;47.754;-3.364;2023-10-08T02:46:00;102351.38;;;13.80;76.86
79527;BME280;68974;47.754;-3.364;2023-10-08T02:48:25;102357.47;;;13.82;76.67
79527;BME280;68974;47.754;-3.364;2023-10-08T02:50:52;102350.28;;;13.81;76.54
79527;BME280;68974;47.754;-3.364;2023-10-08T02:53:19;102355.22;;;13.79;76.51
79527;BME280;68974;47.754;-3.364;2023-10-08T02:55:49;102346.38;;;13.77;76.61
79527;BME280;68974;47.754;-3.364;2023-10-08T02:58:15;102348.31;;;13.77;76.59
79527;BME280;68974;47.754;-3.364;2023-10-08T03:00:50;102342.47;;;13.73;76.60
79527;BME280;68974;47.754;-3.364;2023-10-08T03:03:18;102349.94;;;13.73;76.42
79527;BME280;68974;47.754;-3.364;2023-10-08T03:06:02;102352.38;;;13.69;76.48
79527;BME280;68974;47.754;-3.364;2023-10-08T03:08:28;102356.81;;;13.70;76.44
79527;BME280;68974;47.754;-3.364;2023-10-08T03:10:56;102351.00;;;13.67;76.18
79527;BME280;68974;47.754;-3.364;2023-10-08T03:13:27;102350.94;;;13.62;76.57
79527;BME280;68974;47.754;-3.364;2023-10-08T03:15:53;102348.97;;;13.57;76.72
79527;BME280;68974;47.754;-3.364;2023-10-08T03:18:27;102348.97;;;13.57;76.43
79527;BME280;68974;47.754;-3.364;2023-10-08T03:21:04;102347.28;;;13.56;76.44
79527;BME280;68974;47.754;-3.364;2023-10-08T03:23:31;102354.50;;;13.57;76.13
79527;BME280;68974;47.754;-3.364;2023-10-08T03:26:01;102347.28;;;13.56;76.27
79527;BME280;68974;47.754;-3.364;2023-10-08T03:28:34;102343.44;;;13.57;75.93
79527;BME280;68974;47.754;-3.364;2023-10-08T03:31:01;102350.06;;;13.56;76.26
79527;BME280;68974;47.754;-3.364;2023-10-08T03:33:43;102347.25;;;13.51;76.10
79527;BME280;68974;47.754;-3.364;2023-10-08T03:36:14;102344.69;;;13.44;75.86
79527;BME280;68974;47.754;-3.364;2023-10-08T03:38:46;102344.44;;;13.46;76.30
79527;BME280;68974;47.754;-3.364;2023-10-08T03:41:25;102337.84;;;13.47;76.27
79527;BME280;68974;47.754;-3.364;2023-10-08T03:43:55;102341.69;;;13.46;76.46
79527;BME280;68974;47.754;-3.364;2023-10-08T03:46:30;102336.69;;;13.43;76.13
79527;BME280;68974;47.754;-3.364;2023-10-08T03:48:57;102340.53;;;13.42;76.50
79527;BME280;68974;47.754;-3.364;2023-10-08T03:51:23;102339.41;;;13.38;76.83
79527;BME280;68974;47.754;-3.364;2023-10-08T03:53:53;102340.75;;;13.35;76.10
79527;BME280;68974;47.754;-3.364;2023-10-08T03:56:28;102340.69;;;13.30;76.30
79527;BME280;68974;47.754;-3.364;2023-10-08T03:58:59;102331.03;;;13.28;76.11
79527;BME280;68974;47.754;-3.364;2023-10-08T04:01:41;102331.53;;;13.25;76.25
79527;BME280;68974;47.754;-3.364;2023-10-08T04:04:07;102339.19;;;13.18;76.55
79527;BME280;68974;47.754;-3.364;2023-10-08T04:06:38;102336.44;;;13.18;76.77
79527;BME280;68974;47.754;-3.364;2023-10-08T04:09:05;102334.75;;;13.17;76.75
79527;BME280;68974;47.754;-3.364;2023-10-08T04:11:33;102330.91;;;13.18;76.61
79527;BME280;68974;47.754;-3.364;2023-10-08T04:14:18;102330.31;;;13.16;76.03
79527;BME280;68974;47.754;-3.364;2023-10-08T04:16:44;102320.91;;;13.12;76.51
79527;BME280;68974;47.754;-3.364;2023-10-08T04:19:10;102322.03;;;13.16;75.81
79527;BME280;68974;47.754;-3.364;2023-10-08T04:21:36;102325.50;;;13.06;75.54
79527;BME280;68974;47.754;-3.364;2023-10-08T04:24:01;102321.84;;;13.00;75.84
79527;BME280;68974;47.754;-3.364;2023-10-08T04:26:31;102323.47;;;12.96;76.40
79527;BME280;68974;47.754;-3.364;2023-10-08T04:28:58;102323.75;;;12.95;76.30
79527;BME280;68974;47.754;-3.364;2023-10-08T04:31:31;102325.06;;;12.92;76.45
79527;BME280;68974;47.754;-3.364;2023-10-08T04:34:06;102321.72;;;12.90;76.65
79527;BME280;68974;47.754;-3.364;2023-10-08T04:36:42;102316.22;;;12.90;76.58
79527;BME280;68974;47.754;-3.364;2023-10-08T04:39:10;102314.56;;;12.89;76.49
79527;BME280;68974;47.754;-3.364;2023-10-08T04:41:41;102320.88;;;12.85;76.29
79527;BME280;68974;47.754;-3.364;2023-10-08T04:44:17;102308.41;;;12.82;76.53
79527;BME280;68974;47.754;-3.364;2023-10-08T04:46:43;102315.00;;;12.81;76.21
79527;BME280;68974;47.754;-3.364;2023-10-08T04:49:15;102307.84;;;12.80;76.18
79527;BME280;68974;47.754;-3.364;2023-10-08T04:52:05;102319.31;;;12.72;76.25
79527;BME280;68974;47.754;-3.364;2023-10-08T04:54:34;102311.50;;;12.64;76.37
79527;BME280;68974;47.754;-3.364;2023-10-08T04:57:06;102323.56;;;12.58;76.23
79527;BME280;68974;47.754;-3.364;2023-10-08T04:59:32;102314.69;;;12.56;76.58
79527;BME280;68974;47.754;-3.364;2023-10-08T05:02:03;102325.47;;;12.57;76.56
79527;BME280;68974;47.754;-3.364;2023-10-08T05:04:49;102320.22;;;12.56;76.37
79527;BME280;68974;47.754;-3.364;2023-10-08T05:07:18;102315.81;;;12.55;76.60
79527;BME280;68974;47.754;-3.364;2023-10-08T05:09:52;102316.88;;;12.54;76.86
79527;BME280;68974;47.754;-3.364;2023-10-08T05:12:37;102311.38;;;12.54;76.43
79527;BME280;68974;47.754;-3.364;2023-10-08T05:15:06;102317.72;;;12.54;75.92
79527;BME280;68974;47.754;-3.364;2023-10-08T05:17:47;102313.06;;;12.55;76.19
79527;BME280;68974;47.754;-3.364;2023-10-08T05:20:20;102315.53;;;12.56;76.03
79527;BME280;68974;47.754;-3.364;2023-10-08T05:23:12;102320.78;;;12.58;76.14
79527;BME280;68974;47.754;-3.364;2023-10-08T05:25:51;102322.00;;;12.67;75.69
79527;BME280;68974;47.754;-3.364;2023-10-08T05:28:36;102327.91;;;12.54;75.89
79527;BME280;68974;47.754;-3.364;2023-10-08T05:31:14;102324.00;;;12.50;75.91
79527;BME280;68974;47.754;-3.364;2023-10-08T05:33:40;102319.00;;;12.47;76.15
79527;BME280;68974;47.754;-3.364;2023-10-08T05:36:24;102326.31;;;12.58;76.12
79527;BME280;68974;47.754;-3.364;2023-10-08T05:39:08;102319.06;;;12.52;76.04
79527;BME280;68974;47.754;-3.364;2023-10-08T05:41:49;102328.69;;;12.49;76.29
79527;BME280;68974;47.754;-3.364;2023-10-08T05:44:30;102316.44;;;12.40;76.29
79527;BME280;68974;47.754;-3.364;2023-10-08T05:47:06;102327.78;;;12.44;76.42
79527;BME280;68974;47.754;-3.364;2023-10-08T05:49:37;102330.53;;;12.44;76.78
79527;BME280;68974;47.754;-3.364;2023-10-08T05:52:04;102343.78;;;12.47;76.42
79527;BME280;68974;47.754;-3.364;2023-10-08T05:54:30;102340.47;;;12.45;76.29
79527;BME280;68974;47.754;-3.364;2023-10-08T05:57:04;102344.31;;;12.44;76.64
79527;BME280;68974;47.754;-3.364;2023-10-08T05:59:49;102335.47;;;12.42;76.54
79527;BME280;68974;47.754;-3.364;2023-10-08T06:02:40;102337.66;;;12.40;76.44
79527;BME280;68974;47.754;-3.364;2023-10-08T06:05:12;102347.53;;;12.36;76.58
79527;BME280;68974;47.754;-3.364;2023-10-08T06:10:17;102343.50;;;12.27;77.26
79527;BME280;68974;47.754;-3.364;2023-10-08T06:13:01;102341.88;;;12.26;77.17
79527;BME280;68974;47.754;-3.364;2023-10-08T06:18:35;102352.88;;;12.26;76.86
79527;BME280;68974;47.754;-3.364;2023-10-08T06:21:05;102353.38;;;12.23;76.68
79527;BME280;68974;47.754;-3.364;2023-10-08T06:23:34;102356.72;;;12.25;76.62
79527;BME280;68974;47.754;-3.364;2023-10-08T06:26:01;102356.72;;;12.25;77.14
79527;BME280;68974;47.754;-3.364;2023-10-08T06:28:35;102352.38;;;12.29;76.51
79527;BME280;68974;47.754;-3.364;2023-10-08T06:31:02;102344.69;;;12.31;76.80
79527;BME280;68974;47.754;-3.364;2023-10-08T06:33:32;102351.84;;;12.32;76.34
79527;BME280;68974;47.754;-3.364;2023-10-08T06:35:59;102352.19;;;12.35;76.51
79527;BME280;68974;47.754;-3.364;2023-10-08T06:38:32;102351.69;;;12.38;75.89
79527;BME280;68974;47.754;-3.364;2023-10-08T06:41:02;102354.19;;;12.40;75.77
79527;BME280;68974;47.754;-3.364;2023-10-08T06:43:47;102353.09;;;12.41;75.44
79527;BME280;68974;47.754;-3.364;2023-10-08T06:46:27;102350.66;;;12.44;75.30
79527;BME280;68974;47.754;-3.364;2023-10-08T06:48:54;102352.66;;;12.49;75.26
79527;BME280;68974;47.754;-3.364;2023-10-08T06:51:19;102356.56;;;12.53;75.27
79527;BME280;68974;47.754;-3.364;2023-10-08T06:53:47;102363.22;;;12.57;74.66
79527;BME280;68974;47.754;-3.364;2023-10-08T06:56:16;102361.91;;;12.59;74.39
79527;BME280;68974;47.754;-3.364;2023-10-08T06:58:43;102358.94;;;12.66;74.34
79527;BME280;68974;47.754;-3.364;2023-10-08T07:01:21;102352.94;;;12.69;73.91
79527;BME280;68974;47.754;-3.364;2023-10-08T07:03:47;102345.22;;;12.71;73.27
79527;BME280;68974;47.754;-3.364;2023-10-08T07:06:17;102352.41;;;12.72;73.04
79527;BME280;68974;47.754;-3.364;2023-10-08T07:08:51;102350.25;;;12.74;73.14
79527;BME280;68974;47.754;-3.364;2023-10-08T07:11:20;102351.69;;;12.82;73.03
79527;BME280;68974;47.754;-3.364;2023-10-08T07:13:46;102359.13;;;12.81;72.91
79527;BME280;68974;47.754;-3.364;2023-10-08T07:16:12;102350.38;;;12.84;73.11
79527;BME280;68974;47.754;-3.364;2023-10-08T07:18:38;102354.81;;;12.90;73.36
79527;BME280;68974;47.754;-3.364;2023-10-08T07:21:04;102347.19;;;12.97;73.23
79527;BME280;68974;47.754;-3.364;2023-10-08T07:23:37;102351.63;;;12.98;73.00
79527;BME280;68974;47.754;-3.364;2023-10-08T07:26:18;102346.72;;;13.06;73.07
79527;BME280;68974;47.754;-3.364;2023-10-08T07:28:50;102357.91;;;13.16;73.17
79527;BME280;68974;47.754;-3.364;2023-10-08T07:31:21;102363.53;;;13.26;72.98
79527;BME280;68974;47.754;-3.364;2023-10-08T07:33:49;102362.56;;;13.37;72.97
79527;BME280;68974;47.754;-3.364;2023-10-08T07:36:41;102354.38;;;13.47;72.40
79527;BME280;68974;47.754;-3.364;2023-10-08T07:39:08;102354.16;;;13.54;71.75
79527;BME280;68974;47.754;-3.364;2023-10-08T07:41:45;102363.31;;;13.59;71.66
79527;BME280;68974;47.754;-3.364;2023-10-08T07:44:12;102373.91;;;13.67;71.05
79527;BME280;68974;47.754;-3.364;2023-10-08T07:46:37;102376.69;;;13.67;71.32
79527;BME280;68974;47.754;-3.364;2023-10-08T07:49:03;102375.69;;;13.83;71.23
79527;BME280;68974;47.754;-3.364;2023-10-08T07:51:29;102371.69;;;13.96;70.76
79527;BME280;68974;47.754;-3.364;2023-10-08T07:53:54;102375.03;;;14.03;71.07
79527;BME280;68974;47.754;-3.364;2023-10-08T07:56:23;102369.81;;;14.07;70.58
79527;BME280;68974;47.754;-3.364;2023-10-08T07:58:50;102375.88;;;14.04;70.80
79527;BME280;68974;47.754;-3.364;2023-10-08T08:01:15;102370.72;;;14.17;70.60
79527;BME280;68974;47.754;-3.364;2023-10-08T08:03:40;102382.38;;;14.24;70.84
79527;BME280;68974;47.754;-3.364;2023-10-08T08:06:08;102377.19;;;14.33;69.71
79527;BME280;68974;47.754;-3.364;2023-10-08T08:08:35;102388.88;;;14.40;69.96
79527;BME280;68974;47.754;-3.364;2023-10-08T08:11:10;102390.59;;;14.46;69.84
79527;BME280;68974;47.754;-3.364;2023-10-08T08:13:43;102387.84;;;14.51;69.73
79527;BME280;68974;47.754;-3.364;2023-10-08T08:16:12;102399.25;;;14.65;69.59
79527;BME280;68974;47.754;-3.364;2023-10-08T08:18:50;102391.63;;;14.92;69.19
79527;BME280;68974;47.754;-3.364;2023-10-08T08:21:18;102395.66;;;15.37;67.44
79527;BME280;68974;47.754;-3.364;2023-10-08T08:23:46;102394.66;;;16.03;66.41
79527;BME280;68974;47.754;-3.364;2023-10-08T08:26:24;102383.22;;;17.74;62.29
79527;BME280;68974;47.754;-3.364;2023-10-08T08:28:57;102383.63;;;19.44;57.29
79527;BME280;68974;47.754;-3.364;2023-10-08T08:31:25;102384.88;;;20.95;50.13
79527;BME280;68974;47.754;-3.364;2023-10-08T08:33:52;102374.38;;;22.30;48.60
79527;BME280;68974;47.754;-3.364;2023-10-08T08:36:21;102379.03;;;23.22;45.46
79527;BME280;68974;47.754;-3.364;2023-10-08T08:38:47;102381.72;;;23.96;42.90
79527;BME280;68974;47.754;-3.364;2023-10-08T08:41:13;102384.44;;;24.48;41.81
79527;BME280;68974;47.754;-3.364;2023-10-08T08:43:43;102390.66;;;25.29;40.06
79527;BME280;68974;47.754;-3.364;2023-10-08T08:46:10;102378.28;;;26.38;38.26
79527;BME280;68974;47.754;-3.364;2023-10-08T08:48:41;102388.78;;;27.34;35.58
79527;BME280;68974;47.754;-3.364;2023-10-08T08:51:07;102390.03;;;27.89;34.77
79527;BME280;68974;47.754;-3.364;2023-10-08T08:53:35;102389.53;;;27.99;35.06
79527;BME280;68974;47.754;-3.364;2023-10-08T08:56:01;102403.31;;;28.28;34.61
79527;BME280;68974;47.754;-3.364;2023-10-08T08:58:33;102397.13;;;28.70;34.05
79527;BME280;68974;47.754;-3.364;2023-10-08T09:00:59;102396.13;;;28.62;33.38
79527;BME280;68974;47.754;-3.364;2023-10-08T09:03:25;102398.47;;;29.58;32.16
79527;BME280;68974;47.754;-3.364;2023-10-08T09:05:59;102403.22;;;30.50;29.15
79527;BME280;68974;47.754;-3.364;2023-10-08T09:08:34;102407.44;;;31.05;28.28
79527;BME280;68974;47.754;-3.364;2023-10-08T09:11:00;102406.41;;;31.17;28.51
79527;BME280;68974;47.754;-3.364;2023-10-08T09:13:31;102406.75;;;30.66;29.34
79527;BME280;68974;47.754;-3.364;2023-10-08T09:16:16;102402.81;;;30.74;29.37
79527;BME280;68974;47.754;-3.364;2023-10-08T09:18:43;102401.38;;;31.07;29.91
79527;BME280;68974;47.754;-3.364;2023-10-08T09:21:13;102406.63;;;31.31;29.30
79527;BME280;68974;47.754;-3.364;2023-10-08T09:23:43;102396.75;;;31.21;28.70
79527;BME280;68974;47.754;-3.364;2023-10-08T09:26:10;102404.84;;;31.23;28.48
79527;BME280;68974;47.754;-3.364;2023-10-08T09:28:37;102404.09;;;30.77;29.10
79527;BME280;68974;47.754;-3.364;2023-10-08T09:31:04;102406.94;;;30.54;29.31
79527;BME280;68974;47.754;-3.364;2023-10-08T09:33:30;102402.47;;;31.25;28.60
79527;BME280;68974;47.754;-3.364;2023-10-08T09:35:57;102399.44;;;31.40;28.87
79527;BME280;68974;47.754;-3.364;2023-10-08T09:38:28;102395.78;;;31.66;27.76
79527;BME280;68974;47.754;-3.364;2023-10-08T09:40:55;102403.88;;;31.12;28.05
79527;BME280;68974;47.754;-3.364;2023-10-08T09:43:25;102405.19;;;31.74;28.10
79527;BME280;68974;47.754;-3.364;2023-10-08T09:46:14;102401.13;;;31.45;27.78
79527;BME280;68974;47.754;-3.364;2023-10-08T09:48:41;102405.25;;;31.77;27.96
79527;BME280;68974;47.754;-3.364;2023-10-08T09:51:10;102405.41;;;31.92;27.54
79527;BME280;68974;47.754;-3.364;2023-10-08T09:53:49;102418.00;;;31.91;27.44
79527;BME280;68974;47.754;-3.364;2023-10-08T09:56:18;102408.66;;;31.90;27.38
79527;BME280;68974;47.754;-3.364;2023-10-08T09:58:46;102404.22;;;31.93;27.52
79527;BME280;68974;47.754;-3.364;2023-10-08T10:01:14;102401.50;;;32.40;27.50
79527;BME280;68974;47.754;-3.364;2023-10-08T10:03:44;102408.38;;;32.73;26.79
79527;BME280;68974;47.754;-3.364;2023-10-08T10:06:14;102405.88;;;32.64;27.46
79527;BME280;68974;47.754;-3.364;2023-10-08T10:08:45;102400.63;;;33.24;26.43
79527;BME280;68974;47.754;-3.364;2023-10-08T10:11:11;102401.53;;;33.35;25.87
79527;BME280;68974;47.754;-3.364;2023-10-08T10:13:42;102396.19;;;32.76;26.14
79527;BME280;68974;47.754;-3.364;2023-10-08T10:16:10;102405.16;;;32.78;26.14
79527;BME280;68974;47.754;-3.364;2023-10-08T10:18:38;102404.44;;;32.91;25.62
79527;BME280;68974;47.754;-3.364;2023-10-08T10:26:05;102402.66;;;32.69;25.83
79527;BME280;68974;47.754;-3.364;2023-10-08T10:28:34;102401.91;;;33.30;25.71
79527;BME280;68974;47.754;-3.364;2023-10-08T10:31:03;102399.34;;;33.87;25.22
79527;BME280;68974;47.754;-3.364;2023-10-08T10:33:32;102399.53;;;34.29;25.16
79527;BME280;68974;47.754;-3.364;2023-10-08T10:36:03;102394.72;;;34.69;25.04
79527;BME280;68974;47.754;-3.364;2023-10-08T10:38:30;102399.56;;;34.65;24.54
79527;BME280;68974;47.754;-3.364;2023-10-08T10:40:56;102397.53;;;35.26;23.12
79527;BME280;68974;47.754;-3.364;2023-10-08T10:43:25;102392.09;;;35.63;23.52
79527;BME280;68974;47.754;-3.364;2023-10-08T10:45:59;102392.13;;;35.56;23.23
79527;BME280;68974;47.754;-3.364;2023-10-08T10:48:45;102385.41;;;36.01;22.87
79527;BME280;68974;47.754;-3.364;2023-10-08T10:51:22;102386.41;;;35.56;22.38
79527;BME280;68974;47.754;-3.364;2023-10-08T10:53:48;102392.22;;;35.06;22.21
79527;BME280;68974;47.754;-3.364;2023-10-08T10:56:27;102390.59;;;35.09;22.19
79527;BME280;68974;47.754;-3.364;2023-10-08T10:58:59;102390.59;;;35.27;22.35
79527;BME280;68974;47.754;-3.364;2023-10-08T11:01:28;102394.69;;;35.08;23.03
79527;BME280;68974;47.754;-3.364;2023-10-08T11:04:11;102385.72;;;35.24;21.94
79527;BME280;68974;47.754;-3.364;2023-10-08T11:06:43;102385.16;;;35.64;22.28
79527;BME280;68974;47.754;-3.364;2023-10-08T11:09:10;102385.06;;;36.55;21.64
79527;BME280;68974;47.754;-3.364;2023-10-08T11:11:41;102380.31;;;36.85;20.92
79527;BME280;68974;47.754;-3.364;2023-10-08T11:14:11;102386.91;;;36.82;19.94
79527;BME280;68974;47.754;-3.364;2023-10-08T11:16:44;102386.97;;;37.20;20.09
79527;BME280;68974;47.754;-3.364;2023-10-08T11:19:11;102390.78;;;37.44;19.77
79527;BME280;68974;47.754;-3.364;2023-10-08T11:21:52;102394.72;;;37.91;19.14
79527;BME280;68974;47.754;-3.364;2023-10-08T11:24:30;102398.94;;;38.13;18.46
79527;BME280;68974;47.754;-3.364;2023-10-08T11:26:59;102392.59;;;38.55;18.26
79527;BME280;68974;47.754;-3.364;2023-10-08T11:29:54;102384.84;;;36.28;20.50
79527;BME280;68974;47.754;-3.364;2023-10-08T11:32:24;102387.94;;;36.55;20.52
79527;BME280;68974;47.754;-3.364;2023-10-08T11:34:59;102377.06;;;37.28;20.41
79527;BME280;68974;47.754;-3.364;2023-10-08T11:37:32;102377.84;;;37.32;19.74
79527;BME280;68974;47.754;-3.364;2023-10-08T11:40:02;102378.75;;;37.90;19.08
79527;BME280;68974;47.754;-3.364;2023-10-08T11:42:41;102376.41;;;38.38;18.32
79527;BME280;68974;47.754;-3.364;2023-10-08T11:45:09;102368.91;;;38.48;18.50
79527;BME280;68974;47.754;-3.364;2023-10-08T11:47:47;102365.38;;;38.64;18.13
79527;BME280;68974;47.754;-3.364;2023-10-08T11:50:27;102363.22;;;38.44;17.15
79527;BME280;68974;47.754;-3.364;2023-10-08T11:53:00;102363.31;;;38.37;16.53
79527;BME280;68974;47.754;-3.364;2023-10-08T11:55:29;102361.63;;;38.13;17.13
79527;BME280;68974;47.754;-3.364;2023-10-08T11:57:54;102352.34;;;38.05;16.17
79527;BME280;68974;47.754;-3.364;2023-10-08T12:00:19;102341.81;;;38.22;16.52
79527;BME280;68974;47.754;-3.364;2023-10-08T12:02:46;102345.13;;;38.47;15.85
79527;BME280;68974;47.754;-3.364;2023-10-08T12:05:12;102333.34;;;38.15;17.28
79527;BME280;68974;47.754;-3.364;2023-10-08T12:07:53;102332.72;;;38.54;16.15
79527;BME280;68974;47.754;-3.364;2023-10-08T12:10:23;102332.97;;;37.83;16.30
79527;BME280;68974;47.754;-3.364;2023-10-08T12:12:49;102324.28;;;38.67;16.71
79527;BME280;68974;47.754;-3.364;2023-10-08T12:15:20;102328.34;;;38.46;16.07
79527;BME280;68974;47.754;-3.364;2023-10-08T12:17:50;102318.78;;;38.52;16.96
79527;BME280;68974;47.754;-3.364;2023-10-08T12:20:38;102309.63;;;37.50;17.48
79527;BME280;68974;47.754;-3.364;2023-10-08T12:23:05;102307.44;;;38.45;16.19
79527;BME280;68974;47.754;-3.364;2023-10-08T12:25:32;102308.94;;;38.53;16.47
79527;BME280;68974;47.754;-3.364;2023-10-08T12:28:01;102302.06;;;38.71;15.78
79527;BME280;68974;47.754;-3.364;2023-10-08T12:30:32;102298.00;;;39.51;16.22
79527;BME280;68974;47.754;-3.364;2023-10-08T12:33:07;102298.88;;;39.08;15.61
79527;BME280;68974;47.754;-3.364;2023-10-08T12:35:32;102285.72;;;39.86;14.78
79527;BME280;68974;47.754;-3.364;2023-10-08T12:37:58;102287.16;;;39.78;15.42
79527;BME280;68974;47.754;-3.364;2023-10-08T12:40:23;102279.97;;;39.86;15.12
79527;BME280;68974;47.754;-3.364;2023-10-08T12:42:50;102280.34;;;39.32;14.77
79527;BME280;68974;47.754;-3.364;2023-10-08T12:45:16;102292.63;;;38.47;15.44
79527;BME280;68974;47.754;-3.364;2023-10-08T12:47:54;102279.59;;;39.28;15.08
79527;BME280;68974;47.754;-3.364;2023-10-08T12:50:20;102281.41;;;39.94;13.52
79527;BME280;68974;47.754;-3.364;2023-10-08T12:52:57;102286.97;;;40.17;13.93
79527;BME280;68974;47.754;-3.364;2023-10-08T12:55:29;102285.13;;;40.43;13.92
79527;BME280;68974;47.754;-3.364;2023-10-08T12:57:56;102274.63;;;40.82;13.60
79527;BME280;68974;47.754;-3.364;2023-10-08T13:00:31;102284.38;;;39.35;14.48
79527;BME280;68974;47.754;-3.364;2023-10-08T13:03:00;102278.91;;;40.45;13.77
79527;BME280;68974;47.754;-3.364;2023-10-08T13:05:30;102274.97;;;40.22;13.34
79527;BME280;68974;47.754;-3.364;2023-10-08T13:07:57;102269.00;;;40.62;13.51
79527;BME280;68974;47.754;-3.364;2023-10-08T13:10:29;102269.81;;;40.91;13.40